sensor_id;sensor_type;location;lat;lon;timestamp;P1;durP1;ratioP1;P2;durP2;ratioP2
80400;SDS011;69727;53.132;8.230;2023-06-14T00:01:49;5.75;;;1.75;;
80400;SDS011;69727;53.132;8.230;2023-06-14T00:04:15;4.55;;;1.80;;
80400;SDS011;69727;53.132;8.230;2023-06-14T00:06:45;4.15;;;1.67;;
80400;SDS011;69727;53.132;8.230;2023-06-14T00:09:11;5.45;;;2.05;;
80400;SDS011;69727;53.132;8.230;2023-06-14T00:11:38;4.88;;;2.00;;
80400;SDS011;69727;53.132;8.230;2023-06-14T00:14:05;4.43;;;1.70;;
80400;SDS011;69727;53.132;8.230;2023-06-14T00:16:30;4.03;;;1.95;;
80400;SDS011;69727;53.132;8.230;2023-06-14T00:18:57;5.43;;;2.65;;
80400;SDS011;69727;53.132;8.230;2023-06-14T00:21:23;7.43;;;2.00;;
80400;SDS011;69727;53.132;8.230;2023-06-14T00:23:53;5.05;;;2.05;;
80400;SDS011;69727;53.132;8.230;2023-06-14T00:26:18;3.67;;;1.60;;
80400;SDS011;69727;53.132;8.230;2023-06-14T00:28:44;5.20;;;1.83;;
80400;SDS011;69727;53.132;8.230;2023-06-14T00:31:09;5.53;;;1.90;;
80400;SDS011;69727;53.132;8.230;2023-06-14T00:33:37;5.18;;;1.80;;
80400;SDS011;69727;53.132;8.230;2023-06-14T00:36:05;6.40;;;2.00;;
80400;SDS011;69727;53.132;8.230;2023-06-14T00:38:31;5.45;;;1.90;;
80400;SDS011;69727;53.132;8.230;2023-06-14T00:40:56;4.50;;;2.00;;
80400;SDS011;69727;53.132;8.230;2023-06-14T00:43:21;4.80;;;2.30;;
80400;SDS011;69727;53.132;8.230;2023-06-14T00:45:47;3.83;;;1.80;;
80400;SDS011;69727;53.132;8.230;2023-06-14T00:48:14;6.63;;;2.30;;
80400;SDS011;69727;53.132;8.230;2023-06-14T00:50:40;5.55;;;2.08;;
80400;SDS011;69727;53.132;8.230;2023-06-14T00:53:06;5.35;;;2.00;;
80400;SDS011;69727;53.132;8.230;2023-06-14T00:55:32;6.28;;;2.17;;
80400;SDS011;69727;53.132;8.230;2023-06-14T00:57:58;6.00;;;2.00;;
80400;SDS011;69727;53.132;8.230;2023-06-14T01:00:23;7.28;;;2.25;;
80400;SDS011;69727;53.132;8.230;2023-06-14T01:02:49;6.47;;;2.22;;
80400;SDS011;69727;53.132;8.230;2023-06-14T01:05:15;5.00;;;1.92;;
80400;SDS011;69727;53.132;8.230;2023-06-14T01:13:20;4.40;;;2.00;;
80400;SDS011;69727;53.132;8.230;2023-06-14T01:15:48;4.18;;;1.92;;
80400;SDS011;69727;53.132;8.230;2023-06-14T01:18:16;4.90;;;1.77;;
80400;SDS011;69727;53.132;8.230;2023-06-14T01:20:45;4.68;;;2.17;;
80400;SDS011;69727;53.132;8.230;2023-06-14T01:23:18;7.55;;;2.28;;
80400;SDS011;69727;53.132;8.230;2023-06-14T01:25:44;7.32;;;2.20;;
80400;SDS011;69727;53.132;8.230;2023-06-14T01:28:10;5.88;;;1.88;;
80400;SDS011;69727;53.132;8.230;2023-06-14T01:30:38;3.83;;;2.08;;
80400;SDS011;69727;53.132;8.230;2023-06-14T01:33:07;5.32;;;2.03;;
80400;SDS011;69727;53.132;8.230;2023-06-14T01:35:34;4.13;;;2.10;;
80400;SDS011;69727;53.132;8.230;2023-06-14T01:37:59;7.00;;;2.25;;
80400;SDS011;69727;53.132;8.230;2023-06-14T01:40:25;5.50;;;2.40;;
80400;SDS011;69727;53.132;8.230;2023-06-14T01:42:51;5.50;;;2.53;;
80400;SDS011;69727;53.132;8.230;2023-06-14T01:45:17;5.05;;;2.13;;
80400;SDS011;69727;53.132;8.230;2023-06-14T01:47:43;5.18;;;2.17;;
80400;SDS011;69727;53.132;8.230;2023-06-14T01:50:10;7.22;;;2.17;;
80400;SDS011;69727;53.132;8.230;2023-06-14T01:52:36;5.72;;;1.80;;
80400;SDS011;69727;53.132;8.230;2023-06-14T01:55:03;6.68;;;2.25;;
80400;SDS011;69727;53.132;8.230;2023-06-14T01:57:30;5.28;;;2.42;;
80400;SDS011;69727;53.132;8.230;2023-06-14T01:59:55;5.50;;;2.55;;
80400;SDS011;69727;53.132;8.230;2023-06-14T02:02:21;7.85;;;2.30;;
80400;SDS011;69727;53.132;8.230;2023-06-14T02:04:46;6.30;;;2.20;;
80400;SDS011;69727;53.132;8.230;2023-06-14T02:07:12;5.60;;;2.22;;
80400;SDS011;69727;53.132;8.230;2023-06-14T02:09:39;5.45;;;2.47;;
80400;SDS011;69727;53.132;8.230;2023-06-14T02:12:05;4.55;;;2.17;;
80400;SDS011;69727;53.132;8.230;2023-06-14T02:14:32;5.30;;;2.25;;
80400;SDS011;69727;53.132;8.230;2023-06-14T02:16:58;6.72;;;2.22;;
80400;SDS011;69727;53.132;8.230;2023-06-14T02:19:26;6.03;;;2.58;;
80400;SDS011;69727;53.132;8.230;2023-06-14T02:21:51;4.85;;;2.30;;
80400;SDS011;69727;53.132;8.230;2023-06-14T02:24:17;4.80;;;2.42;;
80400;SDS011;69727;53.132;8.230;2023-06-14T02:26:42;6.33;;;2.30;;
80400;SDS011;69727;53.132;8.230;2023-06-14T02:29:08;6.78;;;2.40;;
80400;SDS011;69727;53.132;8.230;2023-06-14T02:31:37;4.68;;;2.20;;
80400;SDS011;69727;53.132;8.230;2023-06-14T02:34:03;7.75;;;2.42;;
80400;SDS011;69727;53.132;8.230;2023-06-14T02:36:29;4.93;;;2.10;;
80400;SDS011;69727;53.132;8.230;2023-06-14T02:38:55;4.45;;;2.33;;
80400;SDS011;69727;53.132;8.230;2023-06-14T02:41:22;5.38;;;2.45;;
80400;SDS011;69727;53.132;8.230;2023-06-14T02:43:48;5.47;;;2.55;;
80400;SDS011;69727;53.132;8.230;2023-06-14T02:46:14;6.63;;;2.60;;
80400;SDS011;69727;53.132;8.230;2023-06-14T02:48:40;4.63;;;2.30;;
80400;SDS011;69727;53.132;8.230;2023-06-14T02:51:05;6.10;;;2.47;;
80400;SDS011;69727;53.132;8.230;2023-06-14T02:53:31;7.30;;;2.70;;
80400;SDS011;69727;53.132;8.230;2023-06-14T02:55:56;5.55;;;2.60;;
80400;SDS011;69727;53.132;8.230;2023-06-14T02:58:21;4.60;;;2.73;;
80400;SDS011;69727;53.132;8.230;2023-06-14T03:00:49;5.30;;;2.40;;
80400;SDS011;69727;53.132;8.230;2023-06-14T03:03:17;5.93;;;2.50;;
80400;SDS011;69727;53.132;8.230;2023-06-14T03:05:44;6.55;;;2.50;;
80400;SDS011;69727;53.132;8.230;2023-06-14T03:08:14;4.28;;;2.33;;
80400;SDS011;69727;53.132;8.230;2023-06-14T03:10:47;5.63;;;2.53;;
80400;SDS011;69727;53.132;8.230;2023-06-14T03:13:14;4.88;;;2.22;;
80400;SDS011;69727;53.132;8.230;2023-06-14T03:15:43;5.07;;;2.50;;
80400;SDS011;69727;53.132;8.230;2023-06-14T03:18:10;5.28;;;2.35;;
80400;SDS011;69727;53.132;8.230;2023-06-14T03:20:37;4.30;;;2.22;;
80400;SDS011;69727;53.132;8.230;2023-06-14T03:23:03;6.63;;;2.78;;
80400;SDS011;69727;53.132;8.230;2023-06-14T06:55:03;10.40;;;2.92;;
80400;SDS011;69727;53.132;8.230;2023-06-14T06:57:56;8.25;;;3.30;;
80400;SDS011;69727;53.132;8.230;2023-06-14T08:05:10;6.30;;;2.97;;
80400;SDS011;69727;53.132;8.230;2023-06-14T08:07:37;5.88;;;2.50;;
80400;SDS011;69727;53.132;8.230;2023-06-14T08:10:03;7.28;;;2.95;;
80400;SDS011;69727;53.132;8.230;2023-06-14T08:12:31;10.75;;;2.83;;
80400;SDS011;69727;53.132;8.230;2023-06-14T08:14:57;7.68;;;3.00;;
80400;SDS011;69727;53.132;8.230;2023-06-14T08:17:22;7.38;;;2.85;;
80400;SDS011;69727;53.132;8.230;2023-06-14T08:19:48;7.55;;;2.83;;
80400;SDS011;69727;53.132;8.230;2023-06-14T08:22:13;6.60;;;2.65;;
80400;SDS011;69727;53.132;8.230;2023-06-14T08:24:39;7.13;;;2.25;;
80400;SDS011;69727;53.132;8.230;2023-06-14T08:27:05;6.68;;;2.40;;
80400;SDS011;69727;53.132;8.230;2023-06-14T08:29:31;5.50;;;2.20;;
80400;SDS011;69727;53.132;8.230;2023-06-14T08:31:57;5.40;;;2.30;;
80400;SDS011;69727;53.132;8.230;2023-06-14T08:34:22;6.20;;;2.38;;
80400;SDS011;69727;53.132;8.230;2023-06-14T08:36:49;5.75;;;2.42;;
80400;SDS011;69727;53.132;8.230;2023-06-14T08:39:15;5.28;;;2.17;;
80400;SDS011;69727;53.132;8.230;2023-06-14T08:41:41;6.47;;;2.22;;
80400;SDS011;69727;53.132;8.230;2023-06-14T08:44:10;6.03;;;1.90;;
80400;SDS011;69727;53.132;8.230;2023-06-14T08:46:36;4.45;;;1.90;;
80400;SDS011;69727;53.132;8.230;2023-06-14T08:49:02;4.97;;;2.20;;
80400;SDS011;69727;53.132;8.230;2023-06-14T08:51:30;4.50;;;2.17;;
80400;SDS011;69727;53.132;8.230;2023-06-14T08:54:01;4.90;;;2.00;;
80400;SDS011;69727;53.132;8.230;2023-06-14T08:56:29;5.80;;;2.00;;
80400;SDS011;69727;53.132;8.230;2023-06-14T08:58:59;5.57;;;1.92;;
80400;SDS011;69727;53.132;8.230;2023-06-14T09:01:28;4.25;;;1.90;;
80400;SDS011;69727;53.132;8.230;2023-06-14T09:03:56;7.43;;;1.92;;
80400;SDS011;69727;53.132;8.230;2023-06-14T09:06:22;3.17;;;1.60;;
80400;SDS011;69727;53.132;8.230;2023-06-14T09:08:50;3.10;;;1.60;;
80400;SDS011;69727;53.132;8.230;2023-06-14T09:11:19;3.80;;;1.58;;
80400;SDS011;69727;53.132;8.230;2023-06-14T09:13:46;5.00;;;1.63;;
80400;SDS011;69727;53.132;8.230;2023-06-14T09:16:13;3.92;;;1.70;;
80400;SDS011;69727;53.132;8.230;2023-06-14T09:18:40;3.80;;;1.77;;
80400;SDS011;69727;53.132;8.230;2023-06-14T09:21:08;6.03;;;1.77;;
80400;SDS011;69727;53.132;8.230;2023-06-14T09:23:37;3.92;;;1.75;;
80400;SDS011;69727;53.132;8.230;2023-06-14T09:26:15;5.70;;;1.83;;
80400;SDS011;69727;53.132;8.230;2023-06-14T09:28:45;3.85;;;1.80;;
80400;SDS011;69727;53.132;8.230;2023-06-14T09:31:16;5.88;;;2.10;;
80400;SDS011;69727;53.132;8.230;2023-06-14T09:33:42;4.82;;;1.90;;
80400;SDS011;69727;53.132;8.230;2023-06-14T09:36:15;5.30;;;2.10;;
80400;SDS011;69727;53.132;8.230;2023-06-14T09:39:00;7.50;;;2.13;;
80400;SDS011;69727;53.132;8.230;2023-06-14T09:41:40;5.20;;;1.90;;
80400;SDS011;69727;53.132;8.230;2023-06-14T09:44:09;5.15;;;2.00;;
80400;SDS011;69727;53.132;8.230;2023-06-14T09:46:37;6.88;;;2.50;;
80400;SDS011;69727;53.132;8.230;2023-06-14T09:49:03;6.60;;;2.60;;
80400;SDS011;69727;53.132;8.230;2023-06-14T09:51:30;6.75;;;2.20;;
80400;SDS011;69727;53.132;8.230;2023-06-14T09:53:59;4.20;;;1.85;;
80400;SDS011;69727;53.132;8.230;2023-06-14T09:56:30;8.32;;;2.35;;
80400;SDS011;69727;53.132;8.230;2023-06-14T09:58:57;4.45;;;2.20;;
80400;SDS011;69727;53.132;8.230;2023-06-14T10:01:24;6.15;;;2.58;;
80400;SDS011;69727;53.132;8.230;2023-06-14T10:03:53;7.57;;;2.53;;
80400;SDS011;69727;53.132;8.230;2023-06-14T10:06:24;4.32;;;2.10;;
80400;SDS011;69727;53.132;8.230;2023-06-14T10:08:55;6.18;;;2.30;;
80400;SDS011;69727;53.132;8.230;2023-06-14T10:11:24;3.63;;;2.00;;
80400;SDS011;69727;53.132;8.230;2023-06-14T10:13:51;5.03;;;1.80;;
80400;SDS011;69727;53.132;8.230;2023-06-14T10:16:19;5.22;;;1.92;;
80400;SDS011;69727;53.132;8.230;2023-06-14T10:19:10;5.22;;;1.92;;
80400;SDS011;69727;53.132;8.230;2023-06-14T10:24:30;6.93;;;2.30;;
80400;SDS011;69727;53.132;8.230;2023-06-14T10:27:05;6.07;;;2.00;;
80400;SDS011;69727;53.132;8.230;2023-06-14T10:29:35;4.72;;;1.92;;
80400;SDS011;69727;53.132;8.230;2023-06-14T10:32:24;4.47;;;2.15;;
80400;SDS011;69727;53.132;8.230;2023-06-14T10:34:58;5.35;;;2.15;;
80400;SDS011;69727;53.132;8.230;2023-06-14T10:37:31;5.50;;;1.80;;
80400;SDS011;69727;53.132;8.230;2023-06-14T10:39:57;4.90;;;2.30;;
80400;SDS011;69727;53.132;8.230;2023-06-14T10:42:27;4.20;;;2.40;;
80400;SDS011;69727;53.132;8.230;2023-06-14T10:45:01;5.78;;;2.17;;
80400;SDS011;69727;53.132;8.230;2023-06-14T10:47:36;4.47;;;2.10;;
80400;SDS011;69727;53.132;8.230;2023-06-14T10:50:05;5.93;;;2.20;;
80400;SDS011;69727;53.132;8.230;2023-06-14T10:52:42;6.18;;;2.10;;
80400;SDS011;69727;53.132;8.230;2023-06-14T10:55:12;6.15;;;2.17;;
80400;SDS011;69727;53.132;8.230;2023-06-14T10:57:46;4.68;;;2.15;;
80400;SDS011;69727;53.132;8.230;2023-06-14T11:00:16;8.38;;;2.58;;
80400;SDS011;69727;53.132;8.230;2023-06-14T11:05:51;5.55;;;1.92;;
80400;SDS011;69727;53.132;8.230;2023-06-14T11:11:11;6.25;;;2.30;;
80400;SDS011;69727;53.132;8.230;2023-06-14T11:13:38;10.27;;;2.22;;
80400;SDS011;69727;53.132;8.230;2023-06-14T11:16:10;6.88;;;2.30;;
80400;SDS011;69727;53.132;8.230;2023-06-14T11:18:39;5.93;;;2.22;;
80400;SDS011;69727;53.132;8.230;2023-06-14T11:21:05;7.40;;;2.17;;
80400;SDS011;69727;53.132;8.230;2023-06-14T11:23:30;5.15;;;2.20;;
80400;SDS011;69727;53.132;8.230;2023-06-14T11:25:56;5.53;;;2.10;;
80400;SDS011;69727;53.132;8.230;2023-06-14T11:28:21;6.83;;;2.17;;
80400;SDS011;69727;53.132;8.230;2023-06-14T11:30:48;5.63;;;2.50;;
80400;SDS011;69727;53.132;8.230;2023-06-14T11:33:24;7.00;;;2.20;;
80400;SDS011;69727;53.132;8.230;2023-06-14T11:35:50;5.40;;;2.47;;
80400;SDS011;69727;53.132;8.230;2023-06-14T11:38:17;4.75;;;2.40;;
80400;SDS011;69727;53.132;8.230;2023-06-14T11:40:42;5.07;;;2.30;;
80400;SDS011;69727;53.132;8.230;2023-06-14T11:43:08;3.92;;;2.05;;
80400;SDS011;69727;53.132;8.230;2023-06-14T11:45:33;5.88;;;2.92;;
80400;SDS011;69727;53.132;8.230;2023-06-14T11:48:00;4.45;;;2.30;;
80400;SDS011;69727;53.132;8.230;2023-06-14T11:50:26;7.38;;;2.33;;
80400;SDS011;69727;53.132;8.230;2023-06-14T11:52:56;7.68;;;2.20;;
80400;SDS011;69727;53.132;8.230;2023-06-14T11:55:22;6.18;;;2.38;;
80400;SDS011;69727;53.132;8.230;2023-06-14T11:57:49;4.97;;;2.42;;
80400;SDS011;69727;53.132;8.230;2023-06-14T12:00:16;5.05;;;2.20;;
80400;SDS011;69727;53.132;8.230;2023-06-14T12:02:42;6.25;;;2.50;;
80400;SDS011;69727;53.132;8.230;2023-06-14T12:05:20;3.83;;;2.20;;
80400;SDS011;69727;53.132;8.230;2023-06-14T12:07:48;8.43;;;2.30;;
80400;SDS011;69727;53.132;8.230;2023-06-14T12:10:15;5.57;;;2.17;;
80400;SDS011;69727;53.132;8.230;2023-06-14T12:12:41;5.20;;;2.10;;
80400;SDS011;69727;53.132;8.230;2023-06-14T12:15:08;3.95;;;2.10;;
80400;SDS011;69727;53.132;8.230;2023-06-14T12:17:37;5.57;;;2.25;;
80400;SDS011;69727;53.132;8.230;2023-06-14T12:20:07;5.28;;;2.58;;
80400;SDS011;69727;53.132;8.230;2023-06-14T12:22:51;6.57;;;2.30;;
80400;SDS011;69727;53.132;8.230;2023-06-14T12:25:28;5.28;;;2.50;;
80400;SDS011;69727;53.132;8.230;2023-06-14T12:28:08;5.15;;;2.50;;
80400;SDS011;69727;53.132;8.230;2023-06-14T12:30:35;6.95;;;2.20;;
80400;SDS011;69727;53.132;8.230;2023-06-14T12:33:02;5.60;;;2.30;;
80400;SDS011;69727;53.132;8.230;2023-06-14T12:35:28;4.38;;;2.38;;
80400;SDS011;69727;53.132;8.230;2023-06-14T12:37:54;6.50;;;2.30;;
80400;SDS011;69727;53.132;8.230;2023-06-14T12:40:21;6.18;;;2.30;;
80400;SDS011;69727;53.132;8.230;2023-06-14T12:42:47;3.97;;;2.50;;
80400;SDS011;69727;53.132;8.230;2023-06-14T12:45:12;8.05;;;2.65;;
80400;SDS011;69727;53.132;8.230;2023-06-14T12:47:38;7.70;;;2.60;;
80400;SDS011;69727;53.132;8.230;2023-06-14T12:50:04;4.57;;;2.55;;
80400;SDS011;69727;53.132;8.230;2023-06-14T12:52:30;5.95;;;2.15;;
80400;SDS011;69727;53.132;8.230;2023-06-14T12:54:56;6.45;;;2.72;;
80400;SDS011;69727;53.132;8.230;2023-06-14T12:57:24;5.13;;;2.42;;
80400;SDS011;69727;53.132;8.230;2023-06-14T13:00:01;5.20;;;2.53;;
80400;SDS011;69727;53.132;8.230;2023-06-14T13:02:34;6.85;;;2.30;;
80400;SDS011;69727;53.132;8.230;2023-06-14T13:05:00;5.63;;;2.40;;
80400;SDS011;69727;53.132;8.230;2023-06-14T13:07:29;6.72;;;2.83;;
80400;SDS011;69727;53.132;8.230;2023-06-14T13:09:57;6.55;;;2.50;;
80400;SDS011;69727;53.132;8.230;2023-06-14T13:12:29;5.82;;;2.55;;
80400;SDS011;69727;53.132;8.230;2023-06-14T13:14:55;4.28;;;2.33;;
80400;SDS011;69727;53.132;8.230;2023-06-14T13:17:23;4.38;;;2.45;;
80400;SDS011;69727;53.132;8.230;2023-06-14T13:19:59;4.38;;;2.25;;
80400;SDS011;69727;53.132;8.230;2023-06-14T13:25:18;5.60;;;2.78;;
80400;SDS011;69727;53.132;8.230;2023-06-14T13:28:04;6.20;;;2.50;;
80400;SDS011;69727;53.132;8.230;2023-06-14T13:30:30;9.60;;;2.60;;
80400;SDS011;69727;53.132;8.230;2023-06-14T13:32:57;4.20;;;2.60;;
80400;SDS011;69727;53.132;8.230;2023-06-14T13:35:23;7.28;;;3.20;;
80400;SDS011;69727;53.132;8.230;2023-06-14T13:37:51;7.30;;;2.60;;
80400;SDS011;69727;53.132;8.230;2023-06-14T13:40:17;7.07;;;2.40;;
80400;SDS011;69727;53.132;8.230;2023-06-14T13:42:46;7.43;;;2.60;;
80400;SDS011;69727;53.132;8.230;2023-06-14T13:45:12;5.43;;;2.60;;
80400;SDS011;69727;53.132;8.230;2023-06-14T13:47:38;5.97;;;2.40;;
80400;SDS011;69727;53.132;8.230;2023-06-14T13:50:04;6.30;;;2.38;;
80400;SDS011;69727;53.132;8.230;2023-06-14T13:52:30;6.28;;;2.58;;
80400;SDS011;69727;53.132;8.230;2023-06-14T13:54:56;5.50;;;2.97;;
80400;SDS011;69727;53.132;8.230;2023-06-14T13:57:25;5.82;;;2.55;;
80400;SDS011;69727;53.132;8.230;2023-06-14T13:59:50;5.65;;;3.05;;
80400;SDS011;69727;53.132;8.230;2023-06-14T14:02:18;8.10;;;2.83;;
80400;SDS011;69727;53.132;8.230;2023-06-14T14:04:43;5.78;;;2.42;;
80400;SDS011;69727;53.132;8.230;2023-06-14T14:07:25;7.97;;;2.92;;
80400;SDS011;69727;53.132;8.230;2023-06-14T14:09:50;6.20;;;2.72;;
80400;SDS011;69727;53.132;8.230;2023-06-14T14:12:16;6.90;;;2.65;;
80400;SDS011;69727;53.132;8.230;2023-06-14T14:41:25;6.35;;;2.65;;
80400;SDS011;69727;53.132;8.230;2023-06-14T14:44:11;4.75;;;2.63;;
80400;SDS011;69727;53.132;8.230;2023-06-14T14:47:37;6.53;;;2.58;;
80400;SDS011;69727;53.132;8.230;2023-06-14T14:50:10;6.30;;;2.53;;
80400;SDS011;69727;53.132;8.230;2023-06-14T14:52:36;4.57;;;2.65;;
80400;SDS011;69727;53.132;8.230;2023-06-14T14:55:02;6.25;;;2.90;;
80400;SDS011;69727;53.132;8.230;2023-06-14T14:57:27;6.05;;;2.90;;
80400;SDS011;69727;53.132;8.230;2023-06-14T14:59:55;5.55;;;2.67;;
80400;SDS011;69727;53.132;8.230;2023-06-14T15:02:20;4.75;;;2.55;;
80400;SDS011;69727;53.132;8.230;2023-06-14T15:04:46;4.88;;;2.40;;
80400;SDS011;69727;53.132;8.230;2023-06-14T15:07:11;7.00;;;2.70;;
80400;SDS011;69727;53.132;8.230;2023-06-14T15:09:37;5.85;;;2.67;;
80400;SDS011;69727;53.132;8.230;2023-06-14T15:12:15;4.70;;;2.60;;
